sensor_id;sensor_type;location;lat;lon;timestamp;P1;durP1;ratioP1;P2;durP2;ratioP2
3997;SDS011;61314;53.444;9.902;2022-09-13T00:01:14;6.73;;;4.23;;
3997;SDS011;61314;53.444;9.902;2022-09-13T00:03:41;4.50;;;4.13;;
3997;SDS011;61314;53.444;9.902;2022-09-13T00:06:10;4.80;;;4.37;;
3997;SDS011;61314;53.444;9.902;2022-09-13T00:08:37;4.47;;;4.00;;
3997;SDS011;61314;53.444;9.902;2022-09-13T00:11:04;4.43;;;4.13;;
3997;SDS011;61314;53.444;9.902;2022-09-13T00:13:32;4.73;;;4.37;;
3997;SDS011;61314;53.444;9.902;2022-09-13T00:15:59;4.37;;;3.80;;
3997;SDS011;61314;53.444;9.902;2022-09-13T00:18:28;4.53;;;4.23;;
3997;SDS011;61314;53.444;9.902;2022-09-13T00:21:05;5.00;;;4.50;;
3997;SDS011;61314;53.444;9.902;2022-09-13T00:23:32;4.80;;;4.50;;
3997;SDS011;61314;53.444;9.902;2022-09-13T00:26:03;6.07;;;5.40;;
3997;SDS011;61314;53.444;9.902;2022-09-13T00:28:31;4.67;;;4.27;;
3997;SDS011;61314;53.444;9.902;2022-09-13T00:30:58;4.93;;;4.53;;
3997;SDS011;61314;53.444;9.902;2022-09-13T00:33:25;4.97;;;4.50;;
3997;SDS011;61314;53.444;9.902;2022-09-13T00:35:52;5.20;;;4.63;;
3997;SDS011;61314;53.444;9.902;2022-09-13T00:38:19;5.70;;;5.20;;
3997;SDS011;61314;53.444;9.902;2022-09-13T00:40:46;5.93;;;5.37;;
3997;SDS011;61314;53.444;9.902;2022-09-13T00:43:18;6.33;;;5.00;;
3997;SDS011;61314;53.444;9.902;2022-09-13T00:45:45;7.03;;;5.60;;
3997;SDS011;61314;53.444;9.902;2022-09-13T00:48:16;8.10;;;5.80;;
3997;SDS011;61314;53.444;9.902;2022-09-13T00:50:44;6.77;;;6.10;;
3997;SDS011;61314;53.444;9.902;2022-09-13T00:53:14;8.23;;;6.10;;
3997;SDS011;61314;53.444;9.902;2022-09-13T00:55:55;6.07;;;5.40;;
3997;SDS011;61314;53.444;9.902;2022-09-13T00:58:24;7.13;;;6.37;;
3997;SDS011;61314;53.444;9.902;2022-09-13T01:00:53;8.13;;;6.93;;
3997;SDS011;61314;53.444;9.902;2022-09-13T01:03:21;7.07;;;6.43;;
3997;SDS011;61314;53.444;9.902;2022-09-13T01:05:52;6.73;;;6.13;;
3997;SDS011;61314;53.444;9.902;2022-09-13T01:08:20;9.83;;;6.80;;
3997;SDS011;61314;53.444;9.902;2022-09-13T01:10:49;8.83;;;7.40;;
3997;SDS011;61314;53.444;9.902;2022-09-13T01:13:17;7.90;;;7.10;;
3997;SDS011;61314;53.444;9.902;2022-09-13T01:15:45;8.70;;;7.07;;
3997;SDS011;61314;53.444;9.902;2022-09-13T01:18:12;8.20;;;7.27;;
3997;SDS011;61314;53.444;9.902;2022-09-13T01:26:00;8.47;;;7.00;;
3997;SDS011;61314;53.444;9.902;2022-09-13T01:28:56;7.63;;;6.83;;
3997;SDS011;61314;53.444;9.902;2022-09-13T01:31:34;7.33;;;6.73;;
3997;SDS011;61314;53.444;9.902;2022-09-13T01:34:22;7.47;;;6.77;;
3997;SDS011;61314;53.444;9.902;2022-09-13T01:36:57;10.83;;;8.10;;
3997;SDS011;61314;53.444;9.902;2022-09-13T01:44:58;8.27;;;7.03;;
3997;SDS011;61314;53.444;9.902;2022-09-13T01:47:41;9.07;;;8.27;;
3997;SDS011;61314;53.444;9.902;2022-09-13T01:50:17;10.30;;;8.50;;
3997;SDS011;61314;53.444;9.902;2022-09-13T01:52:54;10.07;;;8.10;;
3997;SDS011;61314;53.444;9.902;2022-09-13T01:55:29;9.93;;;8.93;;
3997;SDS011;61314;53.444;9.902;2022-09-13T01:58:04;11.87;;;8.77;;
3997;SDS011;61314;53.444;9.902;2022-09-13T02:00:36;9.03;;;7.80;;
3997;SDS011;61314;53.444;9.902;2022-09-13T02:03:08;10.10;;;8.73;;
3997;SDS011;61314;53.444;9.902;2022-09-13T02:08:09;14.20;;;9.40;;
3997;SDS011;61314;53.444;9.902;2022-09-13T02:10:41;10.40;;;9.30;;
3997;SDS011;61314;53.444;9.902;2022-09-13T02:13:12;10.60;;;8.70;;
3997;SDS011;61314;53.444;9.902;2022-09-13T02:15:44;10.27;;;8.97;;
3997;SDS011;61314;53.444;9.902;2022-09-13T02:18:25;10.00;;;8.90;;
3997;SDS011;61314;53.444;9.902;2022-09-13T02:20:54;9.90;;;8.90;;
3997;SDS011;61314;53.444;9.902;2022-09-13T02:23:25;9.80;;;8.83;;
3997;SDS011;61314;53.444;9.902;2022-09-13T02:25:56;10.37;;;8.97;;
3997;SDS011;61314;53.444;9.902;2022-09-13T02:28:32;9.33;;;8.40;;
3997;SDS011;61314;53.444;9.902;2022-09-13T02:31:01;10.33;;;9.27;;
3997;SDS011;61314;53.444;9.902;2022-09-13T02:33:30;9.40;;;8.50;;
3997;SDS011;61314;53.444;9.902;2022-09-13T02:36:00;10.80;;;9.73;;
3997;SDS011;61314;53.444;9.902;2022-09-13T02:38:49;10.37;;;9.30;;
3997;SDS011;61314;53.444;9.902;2022-09-13T02:41:18;11.40;;;8.90;;
3997;SDS011;61314;53.444;9.902;2022-09-13T02:43:52;11.10;;;9.97;;
3997;SDS011;61314;53.444;9.902;2022-09-13T02:49:10;11.33;;;9.80;;
3997;SDS011;61314;53.444;9.902;2022-09-13T02:54:22;13.83;;;9.97;;
3997;SDS011;61314;53.444;9.902;2022-09-13T02:56:53;17.83;;;11.37;;
3997;SDS011;61314;53.444;9.902;2022-09-13T02:59:24;13.80;;;10.17;;
3997;SDS011;61314;53.444;9.902;2022-09-13T03:02:02;14.50;;;12.00;;
3997;SDS011;61314;53.444;9.902;2022-09-13T03:04:31;13.80;;;11.53;;
3997;SDS011;61314;53.444;9.902;2022-09-13T03:06:58;15.50;;;11.17;;
3997;SDS011;61314;53.444;9.902;2022-09-13T03:09:25;17.50;;;12.43;;
3997;SDS011;61314;53.444;9.902;2022-09-13T03:14:43;14.93;;;12.97;;
3997;SDS011;61314;53.444;9.902;2022-09-13T03:17:24;14.30;;;12.30;;
3997;SDS011;61314;53.444;9.902;2022-09-13T03:28:19;15.03;;;13.27;;
3997;SDS011;61314;53.444;9.902;2022-09-13T03:31:04;16.40;;;14.00;;
3997;SDS011;61314;53.444;9.902;2022-09-13T03:33:39;17.07;;;13.60;;
3997;SDS011;61314;53.444;9.902;2022-09-13T03:36:10;18.10;;;13.87;;
3997;SDS011;61314;53.444;9.902;2022-09-13T03:38:39;19.67;;;13.83;;
3997;SDS011;61314;53.444;9.902;2022-09-13T03:41:08;19.90;;;13.00;;
3997;SDS011;61314;53.444;9.902;2022-09-13T03:43:38;17.47;;;13.90;;
3997;SDS011;61314;53.444;9.902;2022-09-13T03:46:11;19.07;;;14.40;;
3997;SDS011;61314;53.444;9.902;2022-09-13T03:48:40;19.30;;;13.93;;
3997;SDS011;61314;53.444;9.902;2022-09-13T03:51:08;17.87;;;13.87;;
3997;SDS011;61314;53.444;9.902;2022-09-13T03:53:37;18.60;;;14.30;;
3997;SDS011;61314;53.444;9.902;2022-09-13T03:56:15;19.90;;;16.20;;
3997;SDS011;61314;53.444;9.902;2022-09-13T03:58:42;15.27;;;11.77;;
3997;SDS011;61314;53.444;9.902;2022-09-13T04:01:09;21.63;;;14.90;;
3997;SDS011;61314;53.444;9.902;2022-09-13T04:03:36;17.10;;;14.27;;
3997;SDS011;61314;53.444;9.902;2022-09-13T04:06:03;18.33;;;13.90;;
3997;SDS011;61314;53.444;9.902;2022-09-13T04:08:31;17.53;;;14.23;;
3997;SDS011;61314;53.444;9.902;2022-09-13T04:10:58;16.83;;;14.30;;
3997;SDS011;61314;53.444;9.902;2022-09-13T04:13:26;21.80;;;13.80;;
3997;SDS011;61314;53.444;9.902;2022-09-13T04:15:54;19.93;;;14.57;;
3997;SDS011;61314;53.444;9.902;2022-09-13T04:18:21;18.83;;;12.93;;
3997;SDS011;61314;53.444;9.902;2022-09-13T04:20:52;19.13;;;13.83;;
3997;SDS011;61314;53.444;9.902;2022-09-13T04:23:20;18.00;;;12.63;;
3997;SDS011;61314;53.444;9.902;2022-09-13T04:25:47;19.33;;;13.70;;
3997;SDS011;61314;53.444;9.902;2022-09-13T04:28:15;18.47;;;13.13;;
3997;SDS011;61314;53.444;9.902;2022-09-13T04:30:42;20.90;;;14.00;;
3997;SDS011;61314;53.444;9.902;2022-09-13T04:33:10;19.67;;;15.17;;
3997;SDS011;61314;53.444;9.902;2022-09-13T04:35:37;17.70;;;14.30;;
3997;SDS011;61314;53.444;9.902;2022-09-13T04:38:04;19.30;;;13.90;;
3997;SDS011;61314;53.444;9.902;2022-09-13T04:40:32;24.13;;;15.50;;
3997;SDS011;61314;53.444;9.902;2022-09-13T04:43:00;24.73;;;17.33;;
3997;SDS011;61314;53.444;9.902;2022-09-13T04:45:27;19.60;;;15.93;;
3997;SDS011;61314;53.444;9.902;2022-09-13T04:47:54;23.37;;;16.77;;
3997;SDS011;61314;53.444;9.902;2022-09-13T04:50:22;24.67;;;17.47;;
3997;SDS011;61314;53.444;9.902;2022-09-13T04:52:52;25.67;;;17.17;;
3997;SDS011;61314;53.444;9.902;2022-09-13T04:55:20;22.53;;;17.67;;
3997;SDS011;61314;53.444;9.902;2022-09-13T04:57:51;26.67;;;18.13;;
3997;SDS011;61314;53.444;9.902;2022-09-13T05:00:18;32.40;;;19.73;;
3997;SDS011;61314;53.444;9.902;2022-09-13T05:02:45;29.00;;;20.53;;
3997;SDS011;61314;53.444;9.902;2022-09-13T05:05:12;28.00;;;20.70;;
3997;SDS011;61314;53.444;9.902;2022-09-13T05:07:39;35.13;;;21.90;;
3997;SDS011;61314;53.444;9.902;2022-09-13T05:10:06;28.70;;;20.83;;
3997;SDS011;61314;53.444;9.902;2022-09-13T05:12:34;28.80;;;20.87;;
3997;SDS011;61314;53.444;9.902;2022-09-13T05:15:01;27.27;;;20.23;;
3997;SDS011;61314;53.444;9.902;2022-09-13T05:17:28;29.13;;;21.70;;
3997;SDS011;61314;53.444;9.902;2022-09-13T05:19:55;31.80;;;22.30;;
3997;SDS011;61314;53.444;9.902;2022-09-13T05:22:22;33.93;;;24.53;;
3997;SDS011;61314;53.444;9.902;2022-09-13T05:24:49;35.67;;;25.50;;
3997;SDS011;61314;53.444;9.902;2022-09-13T05:27:16;29.10;;;21.90;;
3997;SDS011;61314;53.444;9.902;2022-09-13T05:29:43;33.30;;;23.97;;
3997;SDS011;61314;53.444;9.902;2022-09-13T05:32:10;38.90;;;25.20;;
3997;SDS011;61314;53.444;9.902;2022-09-13T05:34:37;41.10;;;26.90;;
3997;SDS011;61314;53.444;9.902;2022-09-13T05:37:04;42.37;;;28.87;;
3997;SDS011;61314;53.444;9.902;2022-09-13T05:39:31;33.10;;;25.50;;
3997;SDS011;61314;53.444;9.902;2022-09-13T05:42:18;40.93;;;29.40;;
3997;SDS011;61314;53.444;9.902;2022-09-13T05:44:45;45.73;;;28.20;;
3997;SDS011;61314;53.444;9.902;2022-09-13T05:47:12;35.40;;;25.50;;
3997;SDS011;61314;53.444;9.902;2022-09-13T05:49:40;41.00;;;27.07;;
3997;SDS011;61314;53.444;9.902;2022-09-13T05:52:27;42.23;;;28.90;;
3997;SDS011;61314;53.444;9.902;2022-09-13T05:54:54;40.13;;;27.97;;
3997;SDS011;61314;53.444;9.902;2022-09-13T05:57:21;46.03;;;28.90;;
3997;SDS011;61314;53.444;9.902;2022-09-13T05:59:48;35.73;;;25.83;;
3997;SDS011;61314;53.444;9.902;2022-09-13T06:02:15;39.33;;;27.30;;
3997;SDS011;61314;53.444;9.902;2022-09-13T06:04:42;43.10;;;28.83;;
3997;SDS011;61314;53.444;9.902;2022-09-13T06:07:10;51.40;;;30.20;;
3997;SDS011;61314;53.444;9.902;2022-09-13T06:09:37;42.50;;;28.60;;
3997;SDS011;61314;53.444;9.902;2022-09-13T06:12:04;50.73;;;32.90;;
3997;SDS011;61314;53.444;9.902;2022-09-13T06:14:31;53.30;;;30.37;;
3997;SDS011;61314;53.444;9.902;2022-09-13T06:16:58;43.30;;;29.00;;
3997;SDS011;61314;53.444;9.902;2022-09-13T06:19:25;45.83;;;30.60;;
3997;SDS011;61314;53.444;9.902;2022-09-13T06:21:52;47.63;;;30.60;;
3997;SDS011;61314;53.444;9.902;2022-09-13T06:24:19;48.67;;;29.90;;
3997;SDS011;61314;53.444;9.902;2022-09-13T06:26:46;39.53;;;28.50;;
3997;SDS011;61314;53.444;9.902;2022-09-13T06:29:13;42.53;;;29.07;;
3997;SDS011;61314;53.444;9.902;2022-09-13T06:31:40;44.13;;;27.80;;
3997;SDS011;61314;53.444;9.902;2022-09-13T06:34:10;50.43;;;27.90;;
3997;SDS011;61314;53.444;9.902;2022-09-13T06:36:42;44.13;;;29.20;;
3997;SDS011;61314;53.444;9.902;2022-09-13T06:39:09;35.93;;;26.60;;
3997;SDS011;61314;53.444;9.902;2022-09-13T06:41:36;43.97;;;28.67;;
3997;SDS011;61314;53.444;9.902;2022-09-13T06:44:03;46.23;;;28.93;;
3997;SDS011;61314;53.444;9.902;2022-09-13T06:46:31;45.83;;;30.00;;
3997;SDS011;61314;53.444;9.902;2022-09-13T06:49:01;39.77;;;27.00;;
3997;SDS011;61314;53.444;9.902;2022-09-13T06:51:29;42.10;;;28.30;;
3997;SDS011;61314;53.444;9.902;2022-09-13T06:53:56;42.60;;;29.57;;
3997;SDS011;61314;53.444;9.902;2022-09-13T06:56:24;44.27;;;28.77;;
3997;SDS011;61314;53.444;9.902;2022-09-13T06:58:54;44.97;;;29.73;;
3997;SDS011;61314;53.444;9.902;2022-09-13T07:01:28;39.73;;;27.17;;
3997;SDS011;61314;53.444;9.902;2022-09-13T07:04:02;39.97;;;26.70;;
3997;SDS011;61314;53.444;9.902;2022-09-13T07:06:31;41.67;;;28.57;;
3997;SDS011;61314;53.444;9.902;2022-09-13T07:08:59;44.60;;;28.27;;
3997;SDS011;61314;53.444;9.902;2022-09-13T07:11:28;44.07;;;28.23;;
3997;SDS011;61314;53.444;9.902;2022-09-13T07:13:56;40.23;;;27.47;;
3997;SDS011;61314;53.444;9.902;2022-09-13T07:16:24;35.87;;;23.00;;
3997;SDS011;61314;53.444;9.902;2022-09-13T07:18:52;33.33;;;23.97;;
3997;SDS011;61314;53.444;9.902;2022-09-13T07:21:20;41.90;;;28.03;;
3997;SDS011;61314;53.444;9.902;2022-09-13T07:23:47;42.90;;;25.33;;
3997;SDS011;61314;53.444;9.902;2022-09-13T07:26:14;38.60;;;24.07;;
3997;SDS011;61314;53.444;9.902;2022-09-13T07:28:42;36.93;;;25.50;;
3997;SDS011;61314;53.444;9.902;2022-09-13T07:31:14;34.20;;;24.33;;
3997;SDS011;61314;53.444;9.902;2022-09-13T07:33:43;37.47;;;24.10;;
3997;SDS011;61314;53.444;9.902;2022-09-13T07:36:11;33.97;;;22.30;;
3997;SDS011;61314;53.444;9.902;2022-09-13T07:38:39;42.93;;;23.83;;
3997;SDS011;61314;53.444;9.902;2022-09-13T07:41:09;29.10;;;21.00;;
3997;SDS011;61314;53.444;9.902;2022-09-13T07:43:37;29.83;;;21.80;;
3997;SDS011;61314;53.444;9.902;2022-09-13T07:46:05;33.33;;;21.00;;
3997;SDS011;61314;53.444;9.902;2022-09-13T07:48:33;30.87;;;21.80;;
3997;SDS011;61314;53.444;9.902;2022-09-13T07:53:27;25.57;;;20.30;;
3997;SDS011;61314;53.444;9.902;2022-09-13T07:56:05;29.17;;;20.70;;
3997;SDS011;61314;53.444;9.902;2022-09-13T07:58:33;35.20;;;22.57;;
3997;SDS011;61314;53.444;9.902;2022-09-13T08:01:03;35.60;;;21.27;;
3997;SDS011;61314;53.444;9.902;2022-09-13T08:03:32;36.10;;;22.57;;
3997;SDS011;61314;53.444;9.902;2022-09-13T08:05:59;34.97;;;23.03;;
3997;SDS011;61314;53.444;9.902;2022-09-13T08:08:27;28.53;;;19.57;;
3997;SDS011;61314;53.444;9.902;2022-09-13T08:10:54;27.77;;;19.87;;
3997;SDS011;61314;53.444;9.902;2022-09-13T08:13:21;27.40;;;18.87;;
3997;SDS011;61314;53.444;9.902;2022-09-13T08:15:49;26.87;;;17.70;;
3997;SDS011;61314;53.444;9.902;2022-09-13T08:18:16;25.43;;;18.27;;
3997;SDS011;61314;53.444;9.902;2022-09-13T08:20:44;22.37;;;15.80;;
3997;SDS011;61314;53.444;9.902;2022-09-13T08:23:11;27.90;;;16.30;;
3997;SDS011;61314;53.444;9.902;2022-09-13T08:25:39;22.83;;;14.87;;
3997;SDS011;61314;53.444;9.902;2022-09-13T08:28:06;19.73;;;12.30;;
3997;SDS011;61314;53.444;9.902;2022-09-13T08:30:34;17.53;;;12.13;;
3997;SDS011;61314;53.444;9.902;2022-09-13T08:33:02;19.93;;;13.10;;
3997;SDS011;61314;53.444;9.902;2022-09-13T08:35:30;21.70;;;11.90;;
3997;SDS011;61314;53.444;9.902;2022-09-13T08:37:58;15.27;;;10.70;;
3997;SDS011;61314;53.444;9.902;2022-09-13T08:40:29;21.63;;;10.97;;
3997;SDS011;61314;53.444;9.902;2022-09-13T08:45:29;11.93;;;7.93;;
3997;SDS011;61314;53.444;9.902;2022-09-13T08:47:58;13.50;;;7.97;;
3997;SDS011;61314;53.444;9.902;2022-09-13T08:50:29;20.63;;;6.50;;
3997;SDS011;61314;53.444;9.902;2022-09-13T08:53:17;17.40;;;6.23;;
3997;SDS011;61314;53.444;9.902;2022-09-13T09:01:33;19.80;;;7.20;;
3997;SDS011;61314;53.444;9.902;2022-09-13T09:04:12;11.57;;;5.30;;
3997;SDS011;61314;53.444;9.902;2022-09-13T09:06:41;10.53;;;4.23;;
3997;SDS011;61314;53.444;9.902;2022-09-13T09:09:15;12.40;;;4.37;;
3997;SDS011;61314;53.444;9.902;2022-09-13T09:11:47;8.00;;;3.20;;
3997;SDS011;61314;53.444;9.902;2022-09-13T09:14:24;8.43;;;3.63;;
3997;SDS011;61314;53.444;9.902;2022-09-13T09:16:57;6.93;;;2.80;;
3997;SDS011;61314;53.444;9.902;2022-09-13T09:19:28;6.90;;;2.90;;
3997;SDS011;61314;53.444;9.902;2022-09-13T09:22:00;10.37;;;2.83;;
3997;SDS011;61314;53.444;9.902;2022-09-13T09:24:28;10.70;;;2.97;;
3997;SDS011;61314;53.444;9.902;2022-09-13T09:26:58;7.70;;;2.20;;
3997;SDS011;61314;53.444;9.902;2022-09-13T09:29:28;11.77;;;3.57;;
3997;SDS011;61314;53.444;9.902;2022-09-13T09:34:47;3.17;;;1.77;;
3997;SDS011;61314;53.444;9.902;2022-09-13T09:37:19;9.70;;;3.10;;
3997;SDS011;61314;53.444;9.902;2022-09-13T09:39:47;4.23;;;2.37;;
3997;SDS011;61314;53.444;9.902;2022-09-13T09:42:22;5.33;;;2.83;;
3997;SDS011;61314;53.444;9.902;2022-09-13T09:44:52;9.27;;;2.00;;
3997;SDS011;61314;53.444;9.902;2022-09-13T09:47:22;9.33;;;2.77;;
3997;SDS011;61314;53.444;9.902;2022-09-13T09:49:56;6.43;;;2.30;;
3997;SDS011;61314;53.444;9.902;2022-09-13T09:52:45;4.17;;;1.77;;
3997;SDS011;61314;53.444;9.902;2022-09-13T09:58:04;8.90;;;1.83;;
3997;SDS011;61314;53.444;9.902;2022-09-13T10:00:37;11.70;;;1.60;;
3997;SDS011;61314;53.444;9.902;2022-09-13T10:03:05;4.80;;;2.00;;
3997;SDS011;61314;53.444;9.902;2022-09-13T10:05:34;7.00;;;2.13;;
3997;SDS011;61314;53.444;9.902;2022-09-13T10:08:02;12.17;;;1.90;;
3997;SDS011;61314;53.444;9.902;2022-09-13T10:10:35;7.93;;;1.70;;
3997;SDS011;61314;53.444;9.902;2022-09-13T10:13:03;5.30;;;1.50;;
3997;SDS011;61314;53.444;9.902;2022-09-13T10:15:31;8.17;;;1.90;;
3997;SDS011;61314;53.444;9.902;2022-09-13T10:18:33;7.00;;;1.47;;
3997;SDS011;61314;53.444;9.902;2022-09-13T10:23:43;8.47;;;1.87;;
3997;SDS011;61314;53.444;9.902;2022-09-13T10:26:16;7.67;;;1.87;;
3997;SDS011;61314;53.444;9.902;2022-09-13T10:31:17;2.53;;;1.07;;
3997;SDS011;61314;53.444;9.902;2022-09-13T10:36:16;8.10;;;1.10;;
3997;SDS011;61314;53.444;9.902;2022-09-13T10:39:05;8.87;;;1.50;;
3997;SDS011;61314;53.444;9.902;2022-09-13T10:41:33;3.43;;;1.53;;
3997;SDS011;61314;53.444;9.902;2022-09-13T10:44:01;11.70;;;1.83;;
3997;SDS011;61314;53.444;9.902;2022-09-13T10:46:37;6.03;;;1.30;;
3997;SDS011;61314;53.444;9.902;2022-09-13T10:49:08;6.40;;;1.83;;
3997;SDS011;61314;53.444;9.902;2022-09-13T10:51:53;8.70;;;1.53;;
3997;SDS011;61314;53.444;9.902;2022-09-13T10:54:22;8.87;;;1.40;;
3997;SDS011;61314;53.444;9.902;2022-09-13T10:56:50;9.30;;;2.10;;
3997;SDS011;61314;53.444;9.902;2022-09-13T10:59:24;7.13;;;1.27;;
3997;SDS011;61314;53.444;9.902;2022-09-13T11:01:56;7.03;;;1.70;;
3997;SDS011;61314;53.444;9.902;2022-09-13T11:04:40;10.00;;;1.50;;
3997;SDS011;61314;53.444;9.902;2022-09-13T11:07:22;5.93;;;1.60;;
3997;SDS011;61314;53.444;9.902;2022-09-13T11:09:52;4.17;;;1.30;;
3997;SDS011;61314;53.444;9.902;2022-09-13T11:18:19;10.10;;;1.60;;
3997;SDS011;61314;53.444;9.902;2022-09-13T11:20:58;4.80;;;1.10;;
3997;SDS011;61314;53.444;9.902;2022-09-13T11:23:38;6.93;;;1.37;;
3997;SDS011;61314;53.444;9.902;2022-09-13T11:28:46;4.40;;;1.53;;
3997;SDS011;61314;53.444;9.902;2022-09-13T11:34:04;8.17;;;1.50;;
3997;SDS011;61314;53.444;9.902;2022-09-13T11:36:42;4.50;;;1.47;;
3997;SDS011;61314;53.444;9.902;2022-09-13T11:39:15;6.43;;;1.50;;
3997;SDS011;61314;53.444;9.902;2022-09-13T11:41:48;16.47;;;1.90;;
3997;SDS011;61314;53.444;9.902;2022-09-13T11:49:44;2.97;;;1.07;;
3997;SDS011;61314;53.444;9.902;2022-09-13T11:52:36;4.30;;;1.13;;
3997;SDS011;61314;53.444;9.902;2022-09-13T11:55:13;8.93;;;1.00;;
3997;SDS011;61314;53.444;9.902;2022-09-13T11:57:43;4.93;;;1.13;;
3997;SDS011;61314;53.444;9.902;2022-09-13T12:02:44;3.70;;;1.30;;
3997;SDS011;61314;53.444;9.902;2022-09-13T12:07:52;4.97;;;2.00;;
3997;SDS011;61314;53.444;9.902;2022-09-13T12:10:25;2.37;;;1.20;;
3997;SDS011;61314;53.444;9.902;2022-09-13T12:12:54;4.63;;;1.03;;
3997;SDS011;61314;53.444;9.902;2022-09-13T12:15:28;5.70;;;1.20;;
3997;SDS011;61314;53.444;9.902;2022-09-13T12:18:00;5.20;;;1.77;;
3997;SDS011;61314;53.444;9.902;2022-09-13T12:20:34;3.23;;;1.00;;
3997;SDS011;61314;53.444;9.902;2022-09-13T12:23:03;5.63;;;1.00;;
3997;SDS011;61314;53.444;9.902;2022-09-13T12:25:42;5.60;;;1.03;;
3997;SDS011;61314;53.444;9.902;2022-09-13T12:28:15;4.47;;;1.20;;
3997;SDS011;61314;53.444;9.902;2022-09-13T12:30:46;5.77;;;1.23;;
3997;SDS011;61314;53.444;9.902;2022-09-13T12:33:14;5.77;;;1.40;;
3997;SDS011;61314;53.444;9.902;2022-09-13T12:35:56;2.43;;;1.00;;
3997;SDS011;61314;53.444;9.902;2022-09-13T12:41:08;4.37;;;1.17;;
3997;SDS011;61314;53.444;9.902;2022-09-13T12:46:18;7.53;;;1.73;;
3997;SDS011;61314;53.444;9.902;2022-09-13T12:54:06;7.23;;;1.40;;
3997;SDS011;61314;53.444;9.902;2022-09-13T12:56:40;5.37;;;1.60;;
3997;SDS011;61314;53.444;9.902;2022-09-13T13:01:45;4.50;;;1.30;;
3997;SDS011;61314;53.444;9.902;2022-09-13T13:04:14;3.40;;;1.10;;
3997;SDS011;61314;53.444;9.902;2022-09-13T13:06:49;10.77;;;1.50;;
3997;SDS011;61314;53.444;9.902;2022-09-13T13:11:54;7.63;;;1.47;;
3997;SDS011;61314;53.444;9.902;2022-09-13T13:14:27;5.80;;;1.50;;
3997;SDS011;61314;53.444;9.902;2022-09-13T13:17:32;5.67;;;1.60;;
3997;SDS011;61314;53.444;9.902;2022-09-13T13:19:42;11.03;;;1.97;;
3997;SDS011;61314;53.444;9.902;2022-09-13T13:24:55;6.67;;;1.70;;
3997;SDS011;61314;53.444;9.902;2022-09-13T13:27:33;7.03;;;1.30;;
3997;SDS011;61314;53.444;9.902;2022-09-13T13:30:32;3.70;;;1.00;;
3997;SDS011;61314;53.444;9.902;2022-09-13T13:33:12;7.70;;;1.70;;
3997;SDS011;61314;53.444;9.902;2022-09-13T13:35:40;9.93;;;1.70;;
3997;SDS011;61314;53.444;9.902;2022-09-13T13:38:15;6.27;;;1.50;;
3997;SDS011;61314;53.444;9.902;2022-09-13T13:40:42;11.57;;;1.47;;
3997;SDS011;61314;53.444;9.902;2022-09-13T13:43:42;6.67;;;1.27;;
3997;SDS011;61314;53.444;9.902;2022-09-13T13:48:39;4.40;;;1.73;;
3997;SDS011;61314;53.444;9.902;2022-09-13T13:53:46;4.63;;;1.10;;
3997;SDS011;61314;53.444;9.902;2022-09-13T13:56:19;10.57;;;2.03;;
3997;SDS011;61314;53.444;9.902;2022-09-13T13:59:06;9.07;;;1.53;;
3997;SDS011;61314;53.444;9.902;2022-09-13T14:01:35;8.30;;;1.37;;
3997;SDS011;61314;53.444;9.902;2022-09-13T14:06:52;6.50;;;1.30;;
3997;SDS011;61314;53.444;9.902;2022-09-13T14:09:29;3.40;;;1.40;;
3997;SDS011;61314;53.444;9.902;2022-09-13T14:12:06;4.00;;;1.60;;
3997;SDS011;61314;53.444;9.902;2022-09-13T14:17:21;7.83;;;1.83;;
3997;SDS011;61314;53.444;9.902;2022-09-13T14:19:51;6.27;;;1.60;;
3997;SDS011;61314;53.444;9.902;2022-09-13T14:22:21;6.83;;;1.47;;
3997;SDS011;61314;53.444;9.902;2022-09-13T14:24:49;9.90;;;1.20;;
3997;SDS011;61314;53.444;9.902;2022-09-13T14:27:18;2.90;;;1.10;;
3997;SDS011;61314;53.444;9.902;2022-09-13T14:29:53;3.30;;;0.97;;
3997;SDS011;61314;53.444;9.902;2022-09-13T14:32:21;7.57;;;1.83;;
3997;SDS011;61314;53.444;9.902;2022-09-13T14:34:53;3.67;;;1.27;;
3997;SDS011;61314;53.444;9.902;2022-09-13T14:37:23;5.27;;;1.23;;
3997;SDS011;61314;53.444;9.902;2022-09-13T14:39:59;6.90;;;1.30;;
3997;SDS011;61314;53.444;9.902;2022-09-13T14:42:37;4.10;;;1.20;;
3997;SDS011;61314;53.444;9.902;2022-09-13T14:45:04;3.20;;;1.10;;
3997;SDS011;61314;53.444;9.902;2022-09-13T14:47:34;11.30;;;1.63;;
3997;SDS011;61314;53.444;9.902;2022-09-13T14:50:03;10.53;;;1.73;;
3997;SDS011;61314;53.444;9.902;2022-09-13T14:52:34;14.27;;;1.70;;
3997;SDS011;61314;53.444;9.902;2022-09-13T14:55:06;7.67;;;1.40;;
3997;SDS011;61314;53.444;9.902;2022-09-13T14:57:35;11.60;;;1.47;;
3997;SDS011;61314;53.444;9.902;2022-09-13T15:00:05;7.53;;;1.30;;
3997;SDS011;61314;53.444;9.902;2022-09-13T15:02:35;5.80;;;1.57;;
3997;SDS011;61314;53.444;9.902;2022-09-13T15:05:04;8.70;;;1.80;;
3997;SDS011;61314;53.444;9.902;2022-09-13T15:07:35;8.73;;;1.80;;
3997;SDS011;61314;53.444;9.902;2022-09-13T15:12:32;3.97;;;1.40;;
3997;SDS011;61314;53.444;9.902;2022-09-13T15:17:50;9.43;;;1.83;;
3997;SDS011;61314;53.444;9.902;2022-09-13T15:20:17;7.33;;;2.47;;
3997;SDS011;61314;53.444;9.902;2022-09-13T15:22:44;9.83;;;1.50;;
3997;SDS011;61314;53.444;9.902;2022-09-13T15:25:23;4.90;;;1.60;;
3997;SDS011;61314;53.444;9.902;2022-09-13T15:27:51;6.90;;;1.57;;
3997;SDS011;61314;53.444;9.902;2022-09-13T15:30:23;7.60;;;1.40;;
3997;SDS011;61314;53.444;9.902;2022-09-13T15:35:50;6.50;;;1.33;;
3997;SDS011;61314;53.444;9.902;2022-09-13T15:40:59;10.80;;;1.70;;
3997;SDS011;61314;53.444;9.902;2022-09-13T15:43:27;5.77;;;2.07;;
3997;SDS011;61314;53.444;9.902;2022-09-13T15:45:57;10.73;;;1.70;;
3997;SDS011;61314;53.444;9.902;2022-09-13T15:48:33;4.13;;;1.20;;
3997;SDS011;61314;53.444;9.902;2022-09-13T15:51:10;9.47;;;1.80;;
3997;SDS011;61314;53.444;9.902;2022-09-13T15:53:38;10.10;;;1.90;;
3997;SDS011;61314;53.444;9.902;2022-09-13T15:56:06;6.60;;;1.37;;
3997;SDS011;61314;53.444;9.902;2022-09-13T15:58:35;9.60;;;1.70;;
3997;SDS011;61314;53.444;9.902;2022-09-13T16:01:03;7.30;;;1.40;;
3997;SDS011;61314;53.444;9.902;2022-09-13T16:03:30;10.67;;;2.20;;
3997;SDS011;61314;53.444;9.902;2022-09-13T16:05:57;13.30;;;1.90;;
3997;SDS011;61314;53.444;9.902;2022-09-13T16:08:24;6.63;;;1.57;;
3997;SDS011;61314;53.444;9.902;2022-09-13T16:10:51;7.93;;;1.97;;
3997;SDS011;61314;53.444;9.902;2022-09-13T16:13:18;4.60;;;1.40;;
3997;SDS011;61314;53.444;9.902;2022-09-13T16:15:45;9.10;;;2.00;;
3997;SDS011;61314;53.444;9.902;2022-09-13T16:18:13;11.10;;;1.77;;
3997;SDS011;61314;53.444;9.902;2022-09-13T16:20:42;8.70;;;2.07;;
3997;SDS011;61314;53.444;9.902;2022-09-13T16:23:09;7.63;;;2.10;;
3997;SDS011;61314;53.444;9.902;2022-09-13T16:25:36;11.70;;;2.50;;
3997;SDS011;61314;53.444;9.902;2022-09-13T16:28:04;8.43;;;1.90;;
3997;SDS011;61314;53.444;9.902;2022-09-13T16:30:31;4.03;;;1.90;;
3997;SDS011;61314;53.444;9.902;2022-09-13T16:32:59;12.30;;;2.10;;
3997;SDS011;61314;53.444;9.902;2022-09-13T16:35:27;6.90;;;1.33;;
3997;SDS011;61314;53.444;9.902;2022-09-13T16:37:54;7.63;;;1.53;;
3997;SDS011;61314;53.444;9.902;2022-09-13T16:40:21;17.00;;;3.10;;
3997;SDS011;61314;53.444;9.902;2022-09-13T16:42:49;4.53;;;1.83;;
3997;SDS011;61314;53.444;9.902;2022-09-13T16:45:16;6.83;;;1.47;;
3997;SDS011;61314;53.444;9.902;2022-09-13T16:47:43;5.33;;;1.50;;
3997;SDS011;61314;53.444;9.902;2022-09-13T16:50:10;8.83;;;2.13;;
3997;SDS011;61314;53.444;9.902;2022-09-13T16:52:37;12.63;;;1.70;;
3997;SDS011;61314;53.444;9.902;2022-09-13T16:55:04;7.73;;;1.63;;
3997;SDS011;61314;53.444;9.902;2022-09-13T16:57:31;6.53;;;1.57;;
3997;SDS011;61314;53.444;9.902;2022-09-13T16:59:59;6.50;;;1.80;;
3997;SDS011;61314;53.444;9.902;2022-09-13T17:02:28;5.37;;;1.70;;
3997;SDS011;61314;53.444;9.902;2022-09-13T17:04:56;8.67;;;1.50;;
3997;SDS011;61314;53.444;9.902;2022-09-13T17:07:23;16.90;;;2.60;;